createdAt,value
2023-04-27T00:00:01.623Z,45.20
2023-04-27T00:02:37.615Z,45.30
2023-04-27T00:05:07.210Z,45.20
2023-04-27T00:07:35.836Z,45.50
2023-04-27T00:10:04.392Z,45.70
2023-04-27T00:12:34.181Z,45.90
2023-04-27T00:15:02.573Z,46.10
2023-04-27T00:17:31.166Z,46.20
2023-04-27T00:20:00.679Z,46.20
2023-04-27T00:22:29.186Z,46.40
2023-04-27T00:24:57.571Z,46.50
2023-04-27T00:27:25.995Z,47.00
2023-04-27T00:29:56.603Z,47.10
2023-04-27T00:32:25.151Z,46.90
2023-04-27T00:34:53.539Z,46.80
2023-04-27T00:37:22.801Z,46.90
2023-04-27T00:39:51.262Z,46.90
2023-04-27T00:42:19.963Z,46.80
2023-04-27T00:44:52.842Z,46.90
2023-04-27T00:47:22.719Z,46.90
2023-04-27T00:49:51.598Z,46.90
2023-04-27T00:52:20.015Z,46.70
2023-04-27T00:54:49.658Z,46.90
2023-04-27T00:57:18.131Z,46.90
2023-04-27T00:59:46.937Z,47.00
2023-04-27T01:02:15.901Z,47.00
2023-04-27T01:04:45.889Z,47.00
2023-04-27T01:07:14.428Z,47.00
2023-04-27T01:09:42.823Z,47.30
2023-04-27T01:12:11.320Z,47.20
2023-04-27T01:14:39.773Z,47.40
2023-04-27T01:17:08.481Z,47.50
2023-04-27T01:19:40.525Z,47.60
2023-04-27T01:22:10.367Z,47.70
2023-04-27T01:24:41.407Z,47.80
2023-04-27T01:27:10.055Z,47.80
2023-04-27T01:29:39.061Z,47.90
2023-04-27T01:32:07.845Z,48.00
2023-04-27T01:34:36.493Z,48.00
2023-04-27T01:37:05.437Z,48.60
2023-04-27T01:39:34.049Z,48.00
2023-04-27T01:42:04.147Z,48.10
2023-04-27T01:44:32.751Z,48.30
2023-04-27T01:47:01.184Z,48.40
2023-04-27T01:49:29.592Z,48.40
2023-04-27T01:51:57.935Z,48.50
2023-04-27T01:54:28.682Z,48.50
2023-04-27T01:56:58.968Z,48.50
2023-04-27T01:59:29.163Z,48.60
2023-04-27T02:01:57.711Z,48.40
2023-04-27T02:04:26.300Z,48.30
2023-04-27T02:06:54.900Z,48.40
2023-04-27T02:09:23.379Z,48.50
2023-04-27T02:11:51.803Z,48.60
2023-04-27T02:14:20.236Z,48.80
2023-04-27T02:16:50.146Z,49.00
2023-04-27T02:19:18.567Z,49.00
2023-04-27T02:21:46.954Z,49.20
2023-04-27T02:24:15.560Z,49.50
2023-04-27T02:26:46.694Z,49.50
2023-04-27T02:29:15.400Z,49.50
2023-04-27T02:31:44.389Z,49.40
2023-04-27T02:34:16.126Z,49.40
2023-04-27T02:36:44.612Z,49.40
2023-04-27T02:39:13.435Z,49.40
2023-04-27T02:41:41.915Z,49.40
2023-04-27T02:44:10.318Z,49.50
2023-04-27T02:46:38.842Z,49.50
2023-04-27T02:49:07.263Z,49.60
2023-04-27T02:51:37.059Z,49.80
2023-04-27T02:54:05.685Z,49.80
2023-04-27T02:56:34.088Z,49.90
2023-04-27T02:59:02.586Z,50.00
2023-04-27T03:01:31.431Z,50.20
2023-04-27T03:04:00.062Z,50.20
2023-04-27T03:06:29.027Z,50.20
2023-04-27T03:08:58.764Z,50.20
2023-04-27T03:11:29.505Z,50.20
2023-04-27T03:13:59.589Z,50.30
2023-04-27T03:16:29.500Z,50.40
2023-04-27T03:18:57.881Z,50.50
2023-04-27T03:21:26.914Z,50.60
2023-04-27T03:23:55.226Z,50.60
2023-04-27T03:26:26.538Z,50.60
2023-04-27T03:28:55.031Z,50.70
2023-04-27T03:31:23.474Z,50.70
2023-04-27T03:33:51.995Z,50.70
2023-04-27T03:36:20.957Z,50.80
2023-04-27T03:38:49.344Z,50.80
2023-04-27T03:41:17.726Z,50.90
2023-04-27T03:43:47.710Z,51.30
2023-04-27T03:46:16.309Z,51.30
2023-04-27T03:48:47.290Z,51.30
2023-04-27T03:51:16.410Z,51.30
2023-04-27T03:53:47.015Z,51.40
2023-04-27T03:56:15.551Z,51.60
2023-04-27T03:58:43.922Z,51.70
2023-04-27T04:01:25.026Z,51.80
2023-04-27T04:03:53.502Z,52.00
2023-04-27T04:06:22.004Z,52.00
2023-04-27T04:08:50.328Z,52.10
2023-04-27T04:11:20.287Z,52.00
2023-04-27T04:13:49.153Z,52.00
2023-04-27T04:16:17.788Z,52.10
2023-04-27T04:18:47.582Z,52.20
2023-04-27T04:21:16.411Z,52.30
2023-04-27T04:23:45.693Z,52.50
2023-04-27T04:26:14.994Z,52.60
2023-04-27T04:28:44.317Z,52.80
2023-04-27T04:31:13.581Z,53.30
2023-04-27T04:33:41.981Z,53.80
2023-04-27T04:36:12.132Z,54.50
2023-04-27T04:38:40.795Z,54.70
2023-04-27T04:41:10.498Z,55.00
2023-04-27T04:43:39.267Z,54.90
2023-04-27T04:46:08.633Z,55.10
2023-04-27T04:48:37.740Z,55.60
2023-04-27T04:51:07.280Z,54.70
2023-04-27T04:53:38.185Z,54.30
2023-04-27T04:56:11.127Z,54.00
2023-04-27T04:58:40.113Z,53.60
2023-04-27T05:01:08.746Z,53.20
2023-04-27T05:03:37.441Z,52.90
2023-04-27T05:06:06.539Z,51.60
2023-04-27T05:08:34.944Z,51.10
2023-04-27T05:11:04.710Z,50.50
2023-04-27T05:13:33.119Z,49.90
2023-04-27T05:16:04.624Z,49.70
2023-04-27T05:18:33.038Z,49.60
2023-04-27T05:21:01.584Z,49.30
2023-04-27T05:23:30.050Z,48.90
2023-04-27T05:25:58.478Z,48.50
2023-04-27T05:28:28.081Z,48.70
2023-04-27T05:30:56.480Z,47.50
2023-04-27T05:33:25.175Z,46.80
2023-04-27T05:35:53.498Z,46.00
2023-04-27T05:38:21.894Z,45.10
2023-04-27T05:40:56.768Z,44.70
2023-04-27T05:43:25.226Z,44.20
2023-04-27T05:45:55.086Z,43.50
2023-04-27T05:48:23.660Z,42.90
2023-04-27T05:51:01.397Z,42.20
2023-04-27T05:53:30.035Z,41.60
2023-04-27T05:55:59.371Z,41.10
2023-04-27T05:58:28.185Z,40.10
2023-04-27T06:00:58.054Z,39.30
2023-04-27T06:03:27.081Z,39.00
2023-04-27T06:05:58.735Z,38.00
2023-04-27T06:08:28.142Z,38.00
2023-04-27T06:10:56.659Z,38.00
2023-04-27T06:13:25.246Z,37.50
2023-04-27T06:15:53.694Z,36.70
2023-04-27T06:18:23.412Z,35.70
2023-04-27T06:20:51.904Z,35.50
2023-04-27T06:23:20.436Z,35.60
2023-04-27T06:25:49.044Z,35.90
2023-04-27T06:28:17.588Z,35.50
2023-04-27T06:30:46.276Z,35.60
2023-04-27T06:33:14.732Z,35.60
2023-04-27T06:35:47.064Z,35.40
2023-04-27T06:38:16.741Z,34.80
2023-04-27T06:40:45.858Z,34.40
2023-04-27T06:43:14.281Z,34.10
2023-04-27T06:45:42.949Z,33.90
2023-04-27T06:48:11.547Z,33.70
2023-04-27T06:50:39.994Z,33.60
2023-04-27T06:53:10.363Z,33.30
2023-04-27T06:55:39.325Z,33.20
2023-04-27T06:58:08.799Z,33.00
2023-04-27T07:00:37.283Z,32.70
2023-04-27T07:03:05.908Z,32.20
2023-04-27T07:05:35.758Z,31.40
2023-04-27T07:08:08.212Z,31.10
2023-04-27T07:10:38.770Z,30.50
2023-04-27T07:13:09.098Z,30.00
2023-04-27T07:15:37.935Z,29.80
2023-04-27T07:18:06.712Z,29.40
2023-04-27T07:20:35.312Z,29.00
2023-04-27T07:23:04.178Z,28.90
2023-04-27T07:25:33.216Z,28.60
2023-04-27T07:28:02.930Z,28.20
2023-04-27T07:30:34.503Z,28.20
2023-04-27T07:33:03.077Z,27.90
2023-04-27T07:35:32.053Z,26.80
2023-04-27T07:38:03.046Z,26.80
2023-04-27T07:40:33.076Z,26.20
2023-04-27T07:43:02.851Z,25.60
2023-04-27T07:45:33.146Z,25.00
2023-04-27T07:48:03.071Z,24.50
2023-04-27T07:50:32.219Z,24.90
2023-04-27T07:53:01.109Z,25.30
2023-04-27T07:55:29.812Z,25.50
2023-04-27T07:57:58.591Z,25.10
2023-04-27T08:00:28.483Z,24.90
2023-04-27T08:02:57.293Z,23.90
2023-04-27T08:05:26.542Z,23.90
2023-04-27T08:07:55.275Z,24.20
2023-04-27T08:10:23.937Z,25.00
2023-04-27T08:12:52.394Z,25.80
2023-04-27T08:15:22.572Z,26.40
2023-04-27T08:17:52.371Z,26.20
2023-04-27T08:20:21.061Z,25.70
2023-04-27T08:22:51.891Z,25.10
2023-04-27T08:25:20.428Z,24.90
2023-04-27T08:27:48.891Z,25.00
2023-04-27T08:30:18.169Z,24.40
2023-04-27T08:32:47.757Z,24.30
2023-04-27T08:35:17.760Z,24.10
2023-04-27T08:37:46.602Z,24.40
2023-04-27T08:40:15.489Z,24.60
2023-04-27T08:42:56.490Z,24.40
2023-04-27T08:45:25.699Z,24.50
2023-04-27T08:47:54.903Z,24.60
2023-04-27T08:50:25.592Z,24.80
2023-04-27T08:52:54.116Z,25.10
2023-04-27T08:55:23.000Z,26.00
2023-04-27T08:57:58.557Z,26.50
2023-04-27T09:00:28.216Z,26.20
2023-04-27T09:02:57.055Z,26.10
2023-04-27T09:05:27.711Z,25.80
2023-04-27T09:08:05.540Z,26.00
2023-04-27T09:10:46.689Z,26.20
2023-04-27T09:13:15.556Z,25.90
2023-04-27T09:15:47.746Z,25.70
2023-04-27T09:18:18.922Z,25.70
2023-04-27T09:20:49.897Z,25.60
2023-04-27T09:23:28.774Z,25.20
2023-04-27T09:25:57.804Z,25.20
2023-04-27T09:28:28.764Z,25.00
2023-04-27T09:30:58.950Z,24.70
2023-04-27T09:33:29.078Z,23.70
2023-04-27T09:36:02.020Z,22.90
2023-04-27T09:38:31.120Z,23.00
2023-04-27T09:41:00.429Z,22.20
2023-04-27T09:43:30.853Z,21.90
2023-04-27T09:45:59.947Z,21.80
2023-04-27T09:48:28.620Z,21.80
2023-04-27T09:50:58.347Z,22.20
2023-04-27T09:53:31.132Z,22.70
2023-04-27T09:56:17.728Z,23.10
2023-04-27T09:59:15.494Z,23.40
2023-04-27T10:01:48.850Z,23.50
2023-04-27T10:04:38.072Z,23.50
2023-04-27T10:07:12.441Z,22.40
2023-04-27T10:09:43.190Z,22.00
2023-04-27T10:12:22.098Z,22.00
2023-04-27T10:14:52.507Z,22.10
2023-04-27T10:17:26.176Z,22.30
2023-04-27T10:19:59.211Z,22.20
2023-04-27T10:22:41.239Z,21.70
2023-04-27T10:25:19.406Z,21.50
2023-04-27T10:27:53.417Z,21.50
2023-04-27T10:30:23.994Z,21.80
2023-04-27T10:32:54.332Z,22.40
2023-04-27T10:35:23.827Z,22.70
2023-04-27T10:37:53.698Z,22.90
2023-04-27T10:40:22.201Z,22.70
2023-04-27T10:42:50.757Z,22.60
2023-04-27T10:45:31.519Z,22.60
2023-04-27T10:48:02.521Z,22.40
2023-04-27T10:50:33.219Z,22.20
2023-04-27T10:53:04.662Z,22.00
2023-04-27T10:55:33.652Z,21.80
2023-04-27T10:58:02.573Z,21.50
2023-04-27T11:00:32.636Z,21.10
2023-04-27T11:03:12.987Z,20.80
2023-04-27T11:05:42.993Z,20.40
2023-04-27T11:08:14.379Z,20.20
2023-04-27T11:10:46.463Z,20.30
2023-04-27T11:13:16.735Z,19.70
2023-04-27T11:15:46.789Z,19.60
2023-04-27T11:18:15.770Z,19.90
2023-04-27T11:20:45.527Z,20.30
2023-04-27T11:23:25.464Z,20.40
2023-04-27T11:25:54.552Z,21.10
2023-04-27T11:28:23.317Z,20.80
2023-04-27T11:30:57.853Z,21.10
2023-04-27T11:33:26.477Z,21.10
2023-04-27T11:35:55.996Z,21.50
2023-04-27T11:38:26.698Z,21.50
2023-04-27T11:41:03.078Z,21.70
2023-04-27T11:43:31.812Z,22.00
2023-04-27T11:46:03.890Z,21.90
2023-04-27T11:48:32.456Z,22.00
2023-04-27T11:51:01.552Z,22.30
2023-04-27T11:53:36.403Z,22.30
2023-04-27T11:56:06.422Z,21.90
2023-04-27T11:58:36.235Z,21.30
2023-04-27T12:01:05.102Z,21.20
2023-04-27T12:03:34.141Z,21.50
2023-04-27T12:06:21.235Z,22.10
2023-04-27T12:08:53.068Z,22.40
2023-04-27T12:11:21.920Z,22.40
2023-04-27T12:13:50.293Z,22.30
2023-04-27T12:16:18.729Z,22.40
2023-04-27T12:18:47.332Z,21.70
2023-04-27T12:21:15.789Z,21.40
2023-04-27T12:23:44.818Z,21.30
2023-04-27T12:26:15.436Z,20.90
2023-04-27T12:28:44.169Z,19.90
2023-04-27T12:31:18.951Z,20.30
2023-04-27T12:33:49.327Z,20.20
2023-04-27T12:36:17.961Z,20.20
2023-04-27T12:38:46.481Z,19.70
2023-04-27T12:41:16.460Z,19.20
2023-04-27T12:43:46.123Z,18.80
2023-04-27T12:46:14.590Z,18.50
2023-04-27T12:48:43.091Z,18.50
2023-04-27T12:51:11.682Z,18.30
2023-04-27T12:53:40.185Z,18.60
2023-04-27T12:56:08.850Z,18.60
2023-04-27T12:58:38.579Z,18.10
2023-04-27T13:01:14.851Z,17.60
2023-04-27T13:03:43.946Z,17.10
2023-04-27T13:06:12.674Z,17.40
2023-04-27T13:08:42.350Z,17.40
2023-04-27T13:11:10.929Z,17.90
2023-04-27T13:13:41.232Z,18.40
2023-04-27T13:16:10.320Z,18.80
2023-04-27T13:18:39.326Z,18.60
2023-04-27T13:21:08.998Z,18.90
2023-04-27T13:23:37.341Z,19.40
2023-04-27T13:26:07.058Z,19.90
2023-04-27T13:28:35.543Z,19.50
2023-04-27T13:31:06.017Z,19.60
2023-04-27T13:33:39.698Z,19.70
2023-04-27T13:36:08.664Z,20.00
2023-04-27T13:38:37.367Z,19.60
2023-04-27T13:41:06.375Z,19.50
2023-04-27T13:43:34.839Z,19.40
2023-04-27T13:46:03.751Z,18.90
2023-04-27T13:48:33.690Z,18.40
2023-04-27T13:51:02.208Z,18.60
2023-04-27T13:53:30.959Z,18.60
2023-04-27T13:55:59.775Z,18.50
2023-04-27T13:58:29.709Z,18.20
2023-04-27T14:00:59.704Z,17.80
2023-04-27T14:03:28.507Z,18.00
2023-04-27T14:05:58.416Z,17.80
2023-04-27T14:08:26.894Z,17.70
2023-04-27T14:10:56.288Z,17.70
2023-04-27T14:13:24.818Z,17.70
2023-04-27T14:15:53.252Z,17.80
2023-04-27T14:18:29.663Z,17.90
2023-04-27T14:21:01.867Z,18.10
2023-04-27T14:23:31.557Z,18.40
2023-04-27T14:26:00.070Z,18.60
2023-04-27T14:28:28.464Z,18.70
2023-04-27T14:30:59.744Z,18.90
2023-04-27T14:33:28.060Z,19.20
2023-04-27T14:35:56.822Z,19.30
2023-04-27T14:38:26.617Z,19.70
2023-04-27T14:40:55.014Z,19.80
2023-04-27T14:43:23.412Z,19.90
2023-04-27T14:45:55.668Z,20.00
2023-04-27T14:48:30.503Z,20.40
2023-04-27T14:50:58.860Z,20.90
2023-04-27T14:53:28.593Z,21.00
2023-04-27T14:55:57.068Z,21.20
2023-04-27T14:58:25.730Z,21.50
2023-04-27T15:00:54.142Z,21.70
2023-04-27T15:03:22.566Z,22.00
2023-04-27T15:05:51.599Z,22.20
2023-04-27T15:08:20.058Z,22.50
2023-04-27T15:10:49.822Z,22.70
2023-04-27T15:13:18.348Z,23.00
2023-04-27T15:15:47.043Z,23.30
2023-04-27T15:18:15.986Z,23.40
2023-04-27T15:20:44.721Z,23.60
2023-04-27T15:23:13.169Z,23.70
2023-04-27T15:25:43.679Z,23.60
2023-04-27T15:28:13.345Z,23.60
2023-04-27T15:30:41.820Z,23.70
2023-04-27T15:33:10.831Z,23.90
2023-04-27T15:35:40.561Z,24.30
2023-04-27T15:38:12.301Z,24.50
2023-04-27T15:40:41.279Z,24.60
2023-04-27T15:43:09.633Z,24.50
2023-04-27T15:45:39.411Z,24.60
2023-04-27T15:48:07.944Z,24.80
2023-04-27T15:50:36.551Z,24.60
2023-04-27T15:53:04.980Z,24.60
2023-04-27T15:55:33.489Z,24.60
2023-04-27T15:58:02.006Z,24.60
2023-04-27T16:00:30.842Z,24.80
2023-04-27T16:03:00.929Z,25.00
2023-04-27T16:05:29.683Z,25.20
2023-04-27T16:07:58.432Z,25.30
2023-04-27T16:10:27.073Z,25.20
2023-04-27T16:12:55.694Z,25.20
2023-04-27T16:15:24.215Z,25.10
2023-04-27T16:17:52.645Z,25.20
2023-04-27T16:20:22.677Z,25.20
2023-04-27T16:22:51.210Z,25.40
2023-04-27T16:25:19.678Z,25.60
2023-04-27T16:27:48.554Z,25.70
2023-04-27T16:30:17.133Z,25.70
2023-04-27T16:32:45.624Z,25.80
2023-04-27T16:35:14.024Z,25.80
2023-04-27T16:37:43.751Z,25.90
2023-04-27T16:40:12.995Z,26.10
2023-04-27T16:42:41.327Z,26.20
2023-04-27T16:45:11.082Z,26.20
2023-04-27T16:47:39.715Z,26.40
2023-04-27T16:50:08.532Z,26.50
2023-04-27T16:52:36.923Z,26.40
2023-04-27T16:55:07.442Z,26.60
2023-04-27T16:57:35.841Z,26.70
2023-04-27T17:00:06.804Z,26.70
2023-04-27T17:02:35.291Z,26.80
2023-04-27T17:05:04.258Z,26.90
2023-04-27T17:07:33.079Z,27.10
2023-04-27T17:10:01.565Z,27.20
2023-04-27T17:12:31.278Z,27.30
2023-04-27T17:14:59.724Z,27.40
2023-04-27T17:17:28.299Z,27.50
2023-04-27T17:19:56.997Z,27.70
2023-04-27T17:22:25.422Z,27.80
2023-04-27T17:24:53.833Z,28.00
2023-04-27T17:27:22.403Z,28.00
2023-04-27T17:29:53.163Z,28.10
2023-04-27T17:32:21.688Z,28.30
2023-04-27T17:34:50.424Z,28.40
2023-04-27T17:37:18.916Z,28.60
2023-04-27T17:39:47.592Z,28.70
2023-04-27T17:42:16.019Z,28.90
2023-04-27T17:44:44.510Z,29.10
2023-04-27T17:47:14.953Z,29.20
2023-04-27T17:49:43.346Z,29.40
2023-04-27T17:52:11.790Z,29.50
2023-04-27T17:54:41.245Z,29.80
2023-04-27T17:57:10.405Z,29.90
2023-04-27T17:59:38.787Z,29.90
2023-04-27T18:02:07.749Z,30.00
2023-04-27T18:04:37.669Z,30.30
2023-04-27T18:07:06.386Z,30.30
2023-04-27T18:09:34.814Z,30.40
2023-04-27T18:12:04.235Z,30.60
2023-04-27T18:14:32.677Z,30.60
2023-04-27T18:17:01.246Z,30.80
2023-04-27T18:19:29.786Z,31.70
2023-04-27T18:21:59.519Z,31.00
2023-04-27T18:24:27.999Z,31.10
2023-04-27T18:26:56.663Z,31.50
2023-04-27T18:29:25.057Z,31.90
2023-04-27T18:31:54.203Z,31.80
2023-04-27T18:34:22.638Z,31.90
2023-04-27T18:36:52.209Z,31.60
2023-04-27T18:39:22.157Z,31.60
2023-04-27T18:41:50.788Z,31.60
2023-04-27T18:44:19.278Z,31.50
2023-04-27T18:46:47.685Z,32.80
2023-04-27T18:49:16.570Z,33.10
2023-04-27T18:51:45.168Z,33.10
2023-04-27T18:54:13.614Z,33.00
2023-04-27T18:56:43.337Z,33.30
2023-04-27T18:59:11.827Z,33.50
2023-04-27T19:01:40.759Z,33.30
2023-04-27T19:04:09.446Z,33.70
2023-04-27T19:06:38.080Z,33.90
2023-04-27T19:09:06.494Z,34.10
2023-04-27T19:11:34.810Z,33.90
2023-04-27T19:14:04.616Z,33.90
2023-04-27T19:16:33.084Z,33.80
2023-04-27T19:19:01.841Z,33.80
2023-04-27T19:21:30.237Z,33.90
2023-04-27T19:23:58.688Z,33.60
2023-04-27T19:26:29.143Z,33.60
2023-04-27T19:28:58.213Z,33.50
2023-04-27T19:31:28.137Z,33.90
2023-04-27T19:36:32.139Z,34.10
2023-04-27T19:39:00.694Z,33.80
2023-04-27T19:41:29.088Z,33.60
2023-04-27T19:43:57.536Z,33.60
2023-04-27T19:46:27.520Z,33.70
2023-04-27T19:48:56.027Z,33.70
2023-04-27T19:51:24.420Z,33.90
2023-04-27T19:53:52.882Z,34.00
2023-04-27T19:56:21.222Z,34.00
2023-04-27T19:58:49.572Z,34.00
2023-04-27T20:01:18.364Z,34.40
2023-04-27T20:03:48.262Z,34.70
2023-04-27T20:06:17.010Z,34.70
2023-04-27T20:08:45.458Z,35.10
2023-04-27T20:11:13.816Z,34.80
2023-04-27T20:13:42.588Z,35.00
2023-04-27T20:16:11.023Z,35.30
2023-04-27T20:18:39.547Z,35.20
2023-04-27T20:21:09.400Z,35.10
2023-04-27T20:23:37.979Z,35.00
2023-04-27T20:26:06.471Z,35.10
2023-04-27T20:28:34.900Z,35.20
2023-04-27T20:31:03.354Z,35.50
2023-04-27T20:33:32.029Z,35.80
2023-04-27T20:36:06.720Z,35.80
2023-04-27T20:38:46.810Z,35.90
2023-04-27T20:41:15.297Z,36.00
2023-04-27T20:43:45.105Z,36.20
2023-04-27T20:46:13.817Z,36.60
2023-04-27T20:48:42.548Z,36.60
2023-04-27T20:51:11.342Z,36.60
2023-04-27T20:53:41.435Z,36.50
2023-04-27T20:56:12.366Z,36.40
2023-04-27T20:58:40.945Z,37.30
2023-04-27T21:01:09.451Z,37.70
2023-04-27T21:03:38.018Z,37.60
2023-04-27T21:06:06.699Z,38.00
2023-04-27T21:08:35.062Z,38.00
2023-04-27T21:11:03.484Z,38.00
2023-04-27T21:13:33.283Z,38.10
2023-04-27T21:16:02.082Z,38.30
2023-04-27T21:18:30.894Z,38.40
2023-04-27T21:20:59.785Z,38.40
2023-04-27T21:23:28.213Z,38.70
2023-04-27T21:25:56.989Z,38.60
2023-04-27T21:28:25.417Z,38.20
2023-04-27T21:30:55.134Z,38.30
2023-04-27T21:33:23.547Z,38.30
2023-04-27T21:35:52.033Z,38.10
2023-04-27T21:38:20.552Z,37.90
2023-04-27T21:40:48.937Z,37.70
2023-04-27T21:43:17.401Z,37.70
2023-04-27T21:45:46.187Z,37.50
2023-04-27T21:48:16.068Z,37.50
2023-04-27T21:50:44.779Z,37.50
2023-04-27T21:53:13.417Z,38.30
2023-04-27T21:55:41.822Z,38.20
2023-04-27T21:58:10.253Z,38.60
2023-04-27T22:00:38.690Z,39.10
2023-04-27T22:03:07.817Z,39.30
2023-04-27T22:05:37.741Z,39.00
2023-04-27T22:08:07.868Z,38.80
2023-04-27T22:10:36.420Z,38.80
2023-04-27T22:13:17.831Z,38.80
2023-04-27T22:15:47.513Z,39.30
2023-04-27T22:18:16.550Z,39.50
2023-04-27T22:20:46.307Z,39.70
2023-04-27T22:23:14.656Z,39.10
2023-04-27T22:25:43.835Z,39.40
2023-04-27T22:28:12.238Z,39.70
2023-04-27T22:30:42.113Z,39.50
2023-04-27T22:33:11.059Z,39.90
2023-04-27T22:35:39.774Z,39.50
2023-04-27T22:38:10.268Z,39.30
2023-04-27T22:40:39.064Z,39.40
2023-04-27T22:43:07.551Z,39.40
2023-04-27T22:45:38.031Z,39.40
2023-04-27T22:48:07.970Z,39.50
2023-04-27T22:50:36.546Z,39.50
2023-04-27T22:53:04.965Z,39.60
2023-04-27T22:55:34.943Z,39.70
2023-04-27T22:58:03.395Z,39.80
2023-04-27T23:00:31.882Z,40.20
2023-04-27T23:03:00.430Z,41.00
2023-04-27T23:05:29.076Z,40.60
2023-04-27T23:07:57.747Z,40.80
2023-04-27T23:10:26.865Z,41.50
2023-04-27T23:12:57.109Z,40.80
2023-04-27T23:15:25.798Z,40.60
2023-04-27T23:17:54.163Z,40.50
2023-04-27T23:22:53.889Z,40.20
2023-04-27T23:25:22.709Z,40.30
2023-04-27T23:27:52.429Z,40.70
2023-04-27T23:30:22.787Z,40.80
2023-04-27T23:32:51.181Z,40.80
2023-04-27T23:35:19.739Z,40.70
2023-04-27T23:37:48.126Z,40.80
2023-04-27T23:40:16.617Z,40.80
2023-04-27T23:42:45.105Z,41.00
2023-04-27T23:45:13.662Z,41.40
2023-04-27T23:47:43.481Z,42.30
2023-04-27T23:50:12.072Z,42.40
2023-04-27T23:52:40.480Z,42.50
2023-04-27T23:55:10.349Z,42.20
2023-04-27T23:57:38.775Z,41.90
